createdAt,value
2019-01-16T00:00:31.581Z,506.80
2019-01-16T00:01:31.573Z,505.63
2019-01-16T00:02:31.551Z,510.48
2019-01-16T00:03:31.539Z,504.66
2019-01-16T00:04:31.551Z,507.88
2019-01-16T00:05:31.517Z,512.27
2019-01-16T00:06:31.493Z,502.02
2019-01-16T00:07:31.492Z,510.35
2019-01-16T00:08:31.476Z,513.11
2019-01-16T00:09:31.501Z,503.35
2019-01-16T00:10:31.477Z,504.94
2019-01-16T00:11:31.447Z,509.75
2019-01-16T00:12:31.427Z,504.72
2019-01-16T00:13:31.435Z,506.49
2019-01-16T00:14:31.435Z,516.87
2019-01-16T00:15:31.428Z,510.59
2019-01-16T00:16:31.399Z,501.21
2019-01-16T00:17:31.397Z,502.93
2019-01-16T00:18:31.356Z,505.10
2019-01-16T00:19:31.382Z,506.41
2019-01-16T00:20:31.352Z,509.26
2019-01-16T00:21:32.374Z,510.59
2019-01-16T00:22:31.320Z,503.51
2019-01-16T00:23:31.323Z,506.13
2019-01-16T00:24:31.340Z,504.29
2019-01-16T00:25:31.314Z,507.00
2019-01-16T00:26:31.294Z,500.71
2019-01-16T00:27:31.291Z,510.70
2019-01-16T00:28:31.266Z,509.34
2019-01-16T00:29:31.266Z,513.89
2019-01-16T00:30:31.244Z,510.75
2019-01-16T00:31:31.281Z,507.25
2019-01-16T00:32:31.220Z,515.41
2019-01-16T00:33:31.251Z,508.50
2019-01-16T00:34:31.226Z,503.72
2019-01-16T00:35:38.335Z,499.47
2019-01-16T00:36:31.165Z,503.41
2019-01-16T00:37:31.173Z,503.00
2019-01-16T00:38:31.161Z,514.82
2019-01-16T00:39:31.141Z,510.10
2019-01-16T00:40:38.787Z,504.29
2019-01-16T00:41:31.129Z,500.45
2019-01-16T00:42:38.217Z,501.86
2019-01-16T00:43:39.048Z,505.44
2019-01-16T00:44:31.112Z,507.13
2019-01-16T00:45:31.112Z,504.04
2019-01-16T00:46:31.092Z,510.67
2019-01-16T00:47:31.069Z,510.50
2019-01-16T00:48:31.042Z,506.85
2019-01-16T00:49:31.085Z,508.04
2019-01-16T00:50:31.028Z,501.79
2019-01-16T00:51:31.017Z,497.85
2019-01-16T00:52:31.000Z,508.88
2019-01-16T00:53:31.003Z,508.15
2019-01-16T00:54:31.012Z,509.41
2019-01-16T00:55:30.989Z,502.28
2019-01-16T00:56:30.987Z,507.40
2019-01-16T00:57:30.957Z,512.56
2019-01-16T00:58:30.942Z,502.61
2019-01-16T00:59:30.968Z,511.11
2019-01-16T01:00:30.937Z,511.69
2019-01-16T01:01:30.918Z,499.47
2019-01-16T01:02:30.912Z,510.81
2019-01-16T01:03:30.885Z,503.65
2019-01-16T01:04:30.882Z,512.48
2019-01-16T01:05:30.857Z,508.24
2019-01-16T01:06:30.847Z,502.04
2019-01-16T01:07:30.836Z,510.24
2019-01-16T01:08:30.830Z,510.75
2019-01-16T01:09:30.829Z,507.52
2019-01-16T01:10:30.801Z,508.35
2019-01-16T01:11:30.785Z,507.00
2019-01-16T01:12:30.873Z,509.99
2019-01-16T01:13:30.787Z,506.59
2019-01-16T01:14:30.794Z,508.82
2019-01-16T01:15:30.761Z,514.02
2019-01-16T01:16:30.744Z,511.48
2019-01-16T01:17:30.740Z,507.63
2019-01-16T01:18:32.380Z,509.78
2019-01-16T01:19:30.702Z,513.15
2019-01-16T01:20:30.715Z,504.18
2019-01-16T01:21:30.702Z,507.07
2019-01-16T01:22:30.687Z,506.45
2019-01-16T01:23:30.671Z,514.19
2019-01-16T01:24:30.661Z,508.31
2019-01-16T01:25:30.661Z,512.68
2019-01-16T01:26:30.634Z,513.64
2019-01-16T01:27:30.650Z,513.07
2019-01-16T01:28:30.629Z,509.47
2019-01-16T01:29:30.617Z,498.84
2019-01-16T01:30:30.628Z,512.12
2019-01-16T01:31:30.584Z,509.88
2019-01-16T01:32:30.565Z,513.33
2019-01-16T01:33:30.566Z,508.44
2019-01-16T01:34:30.564Z,508.88
2019-01-16T01:35:30.570Z,509.41
2019-01-16T01:36:30.518Z,506.22
2019-01-16T01:37:30.542Z,506.73
2019-01-16T01:38:30.506Z,508.92
2019-01-16T01:39:30.504Z,505.89
2019-01-16T01:40:30.504Z,506.87
2019-01-16T01:41:30.470Z,508.86
2019-01-16T01:42:30.473Z,513.77
2019-01-16T01:43:30.439Z,513.24
2019-01-16T01:44:30.459Z,502.35
2019-01-16T01:45:30.446Z,506.64
2019-01-16T01:46:30.449Z,506.86
2019-01-16T01:47:30.455Z,508.46
2019-01-16T01:48:30.387Z,511.65
2019-01-16T01:49:30.386Z,511.56
2019-01-16T01:50:30.415Z,510.87
2019-01-16T01:51:30.382Z,509.49
2019-01-16T01:52:30.363Z,507.43
2019-01-16T01:53:30.359Z,514.38
2019-01-16T01:54:30.361Z,503.51
2019-01-16T01:55:30.352Z,504.89
2019-01-16T01:56:30.321Z,505.71
2019-01-16T01:57:30.321Z,505.90
2019-01-16T01:58:30.300Z,514.63
2019-01-16T01:59:30.287Z,509.13
2019-01-16T02:00:30.314Z,504.76
2019-01-16T02:01:30.340Z,504.39
2019-01-16T02:02:30.257Z,517.10
2019-01-16T02:03:30.282Z,509.09
2019-01-16T02:04:30.243Z,513.50
2019-01-16T02:05:30.267Z,509.68
2019-01-16T02:06:30.220Z,508.86
2019-01-16T02:07:30.189Z,509.29
2019-01-16T02:08:30.188Z,511.98
2019-01-16T02:09:30.184Z,506.49
2019-01-16T02:10:30.195Z,515.24
2019-01-16T02:11:30.155Z,507.93
2019-01-16T02:12:30.213Z,505.94
2019-01-16T02:13:30.130Z,507.12
2019-01-16T02:14:30.148Z,507.06
2019-01-16T02:15:30.141Z,509.54
2019-01-16T02:16:30.125Z,507.53
2019-01-16T02:17:30.085Z,517.17
2019-01-16T02:18:30.080Z,509.83
2019-01-16T02:19:30.063Z,512.43
2019-01-16T02:20:30.085Z,507.88
2019-01-16T02:21:30.038Z,517.68
2019-01-16T02:22:30.065Z,509.63
2019-01-16T02:23:30.019Z,513.58
2019-01-16T02:24:30.006Z,513.81
2019-01-16T02:25:30.036Z,517.40
2019-01-16T02:26:29.996Z,510.12
2019-01-16T02:27:30.005Z,509.92
2019-01-16T02:28:29.981Z,510.37
2019-01-16T02:29:29.947Z,509.59
2019-01-16T02:30:29.970Z,509.62
2019-01-16T02:31:29.934Z,516.11
2019-01-16T02:32:29.933Z,508.46
2019-01-16T02:33:29.946Z,512.56
2019-01-16T02:34:29.921Z,509.84
2019-01-16T02:35:29.926Z,517.00
2019-01-16T02:36:38.545Z,514.86
2019-01-16T02:37:37.923Z,510.08
2019-01-16T02:38:29.880Z,512.00
2019-01-16T02:39:29.870Z,510.71
2019-01-16T02:40:29.919Z,508.30
2019-01-16T02:41:29.819Z,509.38
2019-01-16T02:42:29.803Z,514.93
2019-01-16T02:43:29.795Z,504.73
2019-01-16T02:44:29.787Z,508.32
2019-01-16T02:45:29.803Z,509.54
2019-01-16T02:46:29.763Z,502.86
2019-01-16T02:47:29.749Z,512.30
2019-01-16T02:48:29.749Z,506.16
2019-01-16T02:49:29.748Z,507.58
2019-01-16T02:50:29.748Z,509.78
2019-01-16T02:51:29.735Z,514.78
2019-01-16T02:52:29.716Z,512.18
2019-01-16T02:53:29.709Z,504.27
2019-01-16T02:54:29.696Z,506.21
2019-01-16T02:55:29.694Z,514.78
2019-01-16T02:56:29.671Z,505.43
2019-01-16T02:57:29.673Z,511.69
2019-01-16T02:58:29.660Z,510.38
2019-01-16T02:59:29.624Z,508.85
2019-01-16T03:00:29.649Z,507.21
2019-01-16T03:01:29.628Z,511.90
2019-01-16T03:02:29.636Z,507.82
2019-01-16T03:03:29.625Z,513.59
2019-01-16T03:04:29.585Z,516.12
2019-01-16T03:05:29.593Z,507.64
2019-01-16T03:06:29.576Z,510.68
2019-01-16T03:07:29.598Z,510.72
2019-01-16T03:08:29.543Z,507.46
2019-01-16T03:09:29.531Z,512.26
2019-01-16T03:10:29.530Z,508.46
2019-01-16T03:11:29.497Z,507.27
2019-01-16T03:12:29.497Z,514.29
2019-01-16T03:13:29.517Z,509.47
2019-01-16T03:14:29.503Z,510.83
2019-01-16T03:15:29.475Z,510.46
2019-01-16T03:16:29.457Z,513.20
2019-01-16T03:17:29.439Z,506.91
2019-01-16T03:18:29.433Z,506.08
2019-01-16T03:19:29.422Z,510.28
2019-01-16T03:20:29.482Z,505.31
2019-01-16T03:21:29.407Z,506.41
2019-01-16T03:22:29.396Z,503.22
2019-01-16T03:23:29.371Z,517.86
2019-01-16T03:24:29.392Z,509.14
2019-01-16T03:25:29.359Z,505.08
2019-01-16T03:26:29.367Z,516.62
2019-01-16T03:27:29.331Z,515.85
2019-01-16T03:28:29.323Z,499.71
2019-01-16T03:29:29.313Z,512.21
2019-01-16T03:30:29.369Z,520.79
2019-01-16T03:31:29.319Z,512.80
2019-01-16T03:32:29.283Z,511.59
2019-01-16T03:33:29.274Z,510.61
2019-01-16T03:34:29.285Z,504.39
2019-01-16T03:35:29.298Z,514.65
2019-01-16T03:36:29.273Z,512.54
2019-01-16T03:37:29.249Z,497.17
2019-01-16T03:38:29.218Z,512.46
2019-01-16T03:39:29.208Z,519.74
2019-01-16T03:40:29.203Z,516.62
2019-01-16T03:41:29.198Z,511.23
2019-01-16T03:42:29.188Z,515.14
2019-01-16T03:43:29.170Z,514.87
2019-01-16T03:44:29.151Z,501.90
2019-01-16T03:45:29.144Z,502.08
2019-01-16T03:46:29.158Z,512.21
2019-01-16T03:47:29.125Z,515.40
2019-01-16T03:48:29.105Z,503.09
2019-01-16T03:49:29.117Z,512.61
2019-01-16T03:50:29.083Z,509.48
2019-01-16T03:51:29.582Z,505.97
2019-01-16T03:52:29.085Z,505.03
2019-01-16T03:53:29.085Z,507.94
2019-01-16T03:54:29.077Z,503.69
2019-01-16T03:55:29.036Z,504.42
2019-01-16T03:56:29.083Z,513.73
2019-01-16T03:57:29.015Z,517.81
2019-01-16T03:58:29.016Z,515.21
2019-01-16T03:59:29.021Z,505.02
2019-01-16T04:00:29.568Z,500.41
2019-01-16T04:01:28.989Z,513.13
2019-01-16T04:02:28.956Z,514.73
2019-01-16T04:03:28.989Z,514.70
2019-01-16T04:04:28.953Z,506.52
2019-01-16T04:05:28.944Z,502.00
2019-01-16T04:06:28.967Z,504.93
2019-01-16T04:07:29.577Z,503.53
2019-01-16T04:08:29.549Z,508.56
2019-01-16T04:09:28.922Z,502.02
2019-01-16T04:10:28.884Z,513.89
2019-01-16T04:11:29.095Z,506.68
2019-01-16T04:12:28.841Z,514.10
2019-01-16T04:13:28.830Z,506.32
2019-01-16T04:14:28.827Z,518.05
2019-01-16T04:15:28.825Z,517.19
2019-01-16T04:16:28.826Z,508.80
2019-01-16T04:17:28.793Z,510.07
2019-01-16T04:18:28.790Z,514.30
2019-01-16T04:19:28.762Z,501.81
2019-01-16T04:20:28.766Z,500.39
2019-01-16T04:21:28.772Z,517.56
2019-01-16T04:22:28.756Z,504.54
2019-01-16T04:23:28.739Z,514.63
2019-01-16T04:24:28.714Z,514.92
2019-01-16T04:25:28.713Z,502.67
2019-01-16T04:26:35.859Z,517.29
2019-01-16T04:27:28.697Z,505.93
2019-01-16T04:28:28.695Z,504.50
2019-01-16T04:29:28.660Z,502.63
2019-01-16T04:30:28.662Z,511.29
2019-01-16T04:31:28.658Z,515.58
2019-01-16T04:32:28.725Z,514.86
2019-01-16T04:33:28.623Z,507.38
2019-01-16T04:34:28.621Z,511.84
2019-01-16T04:35:28.612Z,506.74
2019-01-16T04:36:28.618Z,513.77
2019-01-16T04:37:28.581Z,515.46
2019-01-16T04:38:28.578Z,506.46
2019-01-16T04:39:28.567Z,509.71
2019-01-16T04:40:28.556Z,516.48
2019-01-16T04:41:28.562Z,516.53
2019-01-16T04:42:28.523Z,509.79
2019-01-16T04:43:28.520Z,507.28
2019-01-16T04:44:28.521Z,508.99
2019-01-16T04:45:28.506Z,511.71
2019-01-16T04:46:28.529Z,518.32
2019-01-16T04:47:28.473Z,517.12
2019-01-16T04:48:28.451Z,518.12
2019-01-16T04:49:30.544Z,515.45
2019-01-16T04:50:28.450Z,516.34
2019-01-16T04:51:28.456Z,519.10
2019-01-16T04:52:28.437Z,511.39
2019-01-16T04:53:36.485Z,513.59
2019-01-16T04:54:28.421Z,506.50
2019-01-16T04:55:36.066Z,516.96
2019-01-16T04:56:28.404Z,514.27
2019-01-16T04:57:28.371Z,507.54
2019-01-16T04:58:28.373Z,514.74
2019-01-16T04:59:28.336Z,513.89
2019-01-16T05:00:28.336Z,513.44
2019-01-16T05:01:28.328Z,513.45
2019-01-16T05:02:28.310Z,503.96
2019-01-16T05:03:28.310Z,510.92
2019-01-16T05:04:28.291Z,510.05
2019-01-16T05:05:28.307Z,508.29
2019-01-16T05:06:28.291Z,509.06
2019-01-16T05:07:28.285Z,513.71
2019-01-16T05:08:28.247Z,515.80
2019-01-16T05:09:28.257Z,511.93
2019-01-16T05:10:28.225Z,513.27
2019-01-16T05:11:28.223Z,514.65
2019-01-16T05:12:29.431Z,505.70
2019-01-16T05:13:28.213Z,513.48
2019-01-16T05:14:29.111Z,511.40
2019-01-16T05:15:28.207Z,513.21
2019-01-16T05:16:28.192Z,508.59
2019-01-16T05:17:28.155Z,506.56
2019-01-16T05:18:28.159Z,513.35
2019-01-16T05:19:28.192Z,510.14
2019-01-16T05:20:28.135Z,509.15
2019-01-16T05:21:28.142Z,513.35
2019-01-16T05:22:28.132Z,511.70
2019-01-16T05:23:28.115Z,513.12
2019-01-16T05:24:28.079Z,511.36
2019-01-16T05:25:28.092Z,511.18
2019-01-16T05:26:28.144Z,510.01
2019-01-16T05:27:28.076Z,511.82
2019-01-16T05:28:28.047Z,511.18
2019-01-16T05:29:28.023Z,510.79
2019-01-16T05:30:28.018Z,514.85
2019-01-16T05:31:28.000Z,512.66
2019-01-16T05:32:28.001Z,517.52
2019-01-16T05:33:27.984Z,516.03
2019-01-16T05:34:27.987Z,514.28
2019-01-16T05:35:27.976Z,521.49
2019-01-16T05:36:27.957Z,518.06
2019-01-16T05:37:28.206Z,515.16
2019-01-16T05:38:27.942Z,516.61
2019-01-16T05:39:27.922Z,512.44
2019-01-16T05:40:27.899Z,517.58
2019-01-16T05:41:27.913Z,514.15
2019-01-16T05:42:27.904Z,518.88
2019-01-16T05:43:27.874Z,517.90
2019-01-16T05:44:27.898Z,515.34
2019-01-16T05:45:27.854Z,522.03
2019-01-16T05:46:27.845Z,517.90
2019-01-16T05:47:27.856Z,512.20
2019-01-16T05:48:27.839Z,518.42
2019-01-16T05:49:27.827Z,513.80
2019-01-16T05:50:27.810Z,517.61
2019-01-16T05:51:27.821Z,516.12
2019-01-16T05:52:27.819Z,512.10
2019-01-16T05:53:27.755Z,516.40
2019-01-16T05:54:27.760Z,517.44
2019-01-16T05:55:27.751Z,515.52
2019-01-16T05:56:35.702Z,516.10
2019-01-16T05:57:28.188Z,512.32
2019-01-16T05:58:27.699Z,518.89
2019-01-16T05:59:27.696Z,514.91
2019-01-16T06:00:27.694Z,514.62
2019-01-16T06:01:27.690Z,515.03
2019-01-16T06:02:27.678Z,518.85
2019-01-16T06:03:27.665Z,509.00
2019-01-16T06:04:27.650Z,514.70
2019-01-16T06:05:27.640Z,517.83
2019-01-16T06:06:27.623Z,515.20
2019-01-16T06:07:27.632Z,517.35
2019-01-16T06:08:27.618Z,520.56
2019-01-16T06:09:27.614Z,517.31
2019-01-16T06:10:27.595Z,515.18
2019-01-16T06:11:28.162Z,520.50
2019-01-16T06:12:27.584Z,511.73
2019-01-16T06:13:27.571Z,515.43
2019-01-16T06:14:27.550Z,520.40
2019-01-16T06:15:27.526Z,517.60
2019-01-16T06:16:27.524Z,517.00
2019-01-16T06:17:27.552Z,517.28
2019-01-16T06:18:27.503Z,517.29
2019-01-16T06:19:27.477Z,519.73
2019-01-16T06:20:27.480Z,519.10
2019-01-16T06:21:27.475Z,515.96
2019-01-16T06:22:27.474Z,520.67
2019-01-16T06:23:27.470Z,520.31
2019-01-16T06:24:27.438Z,520.46
2019-01-16T06:25:27.476Z,527.70
2019-01-16T06:26:27.407Z,520.45
2019-01-16T06:27:27.411Z,525.06
2019-01-16T06:28:27.383Z,523.02
2019-01-16T06:29:27.368Z,516.47
2019-01-16T06:30:27.361Z,526.38
2019-01-16T06:31:27.356Z,515.10
2019-01-16T06:32:27.351Z,517.13
2019-01-16T06:33:27.344Z,517.06
2019-01-16T06:34:27.333Z,522.45
2019-01-16T06:35:27.318Z,519.71
2019-01-16T06:36:27.319Z,514.99
2019-01-16T06:37:27.341Z,515.35
2019-01-16T06:38:27.287Z,523.29
2019-01-16T06:39:27.285Z,519.42
2019-01-16T06:40:27.298Z,516.68
2019-01-16T06:41:27.275Z,518.99
2019-01-16T06:42:27.303Z,519.47
2019-01-16T06:43:27.233Z,521.57
2019-01-16T06:44:27.242Z,520.05
2019-01-16T06:45:27.236Z,517.81
2019-01-16T06:46:27.217Z,519.13
2019-01-16T06:47:27.220Z,519.54
2019-01-16T06:48:27.184Z,520.24
2019-01-16T06:49:27.177Z,510.81
2019-01-16T06:50:27.174Z,511.99
2019-01-16T06:51:27.145Z,515.30
2019-01-16T06:52:27.165Z,516.33
2019-01-16T06:53:27.128Z,517.82
2019-01-16T06:54:27.126Z,512.15
2019-01-16T06:55:27.094Z,520.31
2019-01-16T06:56:27.101Z,519.27
2019-01-16T06:57:27.113Z,522.61
2019-01-16T06:58:27.074Z,518.51
2019-01-16T06:59:27.078Z,509.90
2019-01-16T07:00:27.059Z,514.02
2019-01-16T07:01:27.027Z,514.27
2019-01-16T07:02:27.043Z,513.09
2019-01-16T07:03:27.029Z,518.96
2019-01-16T07:04:27.013Z,518.18
2019-01-16T07:05:27.026Z,520.04
2019-01-16T07:06:26.983Z,514.53
2019-01-16T07:07:26.995Z,521.24
2019-01-16T07:08:26.975Z,522.54
2019-01-16T07:09:26.962Z,519.99
2019-01-16T07:10:26.925Z,512.32
2019-01-16T07:11:26.954Z,519.34
2019-01-16T07:12:26.943Z,521.99
2019-01-16T07:13:26.911Z,522.24
2019-01-16T07:14:26.918Z,517.48
2019-01-16T07:15:26.885Z,520.98
2019-01-16T07:16:26.869Z,521.88
2019-01-16T07:17:26.893Z,521.28
2019-01-16T07:18:26.864Z,520.93
2019-01-16T07:19:26.837Z,520.67
2019-01-16T07:20:26.858Z,522.52
2019-01-16T07:21:35.418Z,525.22
2019-01-16T07:22:27.266Z,523.25
2019-01-16T07:23:26.804Z,518.52
2019-01-16T07:24:26.808Z,521.05
2019-01-16T07:25:35.357Z,512.10
2019-01-16T07:26:26.794Z,520.21
2019-01-16T07:27:26.786Z,519.54
2019-01-16T07:28:33.870Z,518.71
2019-01-16T07:29:26.773Z,521.04
2019-01-16T07:30:26.812Z,519.56
2019-01-16T07:31:26.755Z,519.69
2019-01-16T07:32:26.773Z,517.50
2019-01-16T07:33:26.696Z,517.19
2019-01-16T07:34:26.698Z,520.42
2019-01-16T07:35:26.724Z,520.73
2019-01-16T07:36:26.685Z,510.84
2019-01-16T07:37:26.654Z,521.61
2019-01-16T07:38:26.673Z,517.36
2019-01-16T07:39:26.638Z,520.08
2019-01-16T07:40:26.631Z,523.78
2019-01-16T07:41:26.598Z,524.19
2019-01-16T07:42:26.584Z,525.06
2019-01-16T07:43:26.605Z,522.39
2019-01-16T07:44:26.578Z,521.34
2019-01-16T07:45:26.581Z,523.65
2019-01-16T07:46:26.574Z,524.42
2019-01-16T07:47:26.538Z,516.52
2019-01-16T07:48:33.647Z,517.36
2019-01-16T07:49:34.625Z,521.51
2019-01-16T07:50:26.526Z,521.51
2019-01-16T07:51:26.509Z,522.46
2019-01-16T07:52:26.482Z,518.02
2019-01-16T07:53:26.494Z,521.07
2019-01-16T07:54:26.463Z,526.79
2019-01-16T07:55:26.457Z,524.03
2019-01-16T07:56:26.454Z,521.38
2019-01-16T07:57:26.429Z,521.87
2019-01-16T07:58:26.446Z,526.00
2019-01-16T07:59:26.413Z,523.86
2019-01-16T08:00:26.404Z,521.92
2019-01-16T08:01:26.385Z,517.17
2019-01-16T08:02:26.382Z,518.33
2019-01-16T08:03:26.390Z,521.34
2019-01-16T08:04:26.348Z,523.29
2019-01-16T08:05:26.352Z,523.82
2019-01-16T08:06:26.420Z,521.40
2019-01-16T08:07:26.339Z,521.78
2019-01-16T08:08:26.346Z,519.29
2019-01-16T08:09:26.368Z,519.60
2019-01-16T08:10:26.351Z,519.98
2019-01-16T08:11:26.283Z,521.77
2019-01-16T08:12:33.451Z,522.20
2019-01-16T08:13:26.290Z,522.35
2019-01-16T08:14:26.272Z,521.91
2019-01-16T08:15:26.286Z,516.29
2019-01-16T08:16:26.238Z,518.30
2019-01-16T08:17:26.200Z,522.07
2019-01-16T08:18:34.456Z,521.59
2019-01-16T08:19:26.232Z,524.49
2019-01-16T08:20:33.312Z,510.69
2019-01-16T08:21:34.859Z,522.20
2019-01-16T08:23:45.183Z,517.12
2019-01-16T08:24:52.726Z,518.68
2019-01-16T08:25:44.743Z,523.84
2019-01-16T08:26:45.497Z,520.55
2019-01-16T08:27:44.708Z,522.44
2019-01-16T08:28:44.716Z,522.62
2019-01-16T08:29:44.676Z,522.28
2019-01-16T08:30:44.674Z,526.62
2019-01-16T08:31:44.655Z,526.00
2019-01-16T08:32:44.659Z,523.51
2019-01-16T08:33:44.651Z,519.52
2019-01-16T08:34:44.623Z,523.16
2019-01-16T08:35:44.632Z,523.17
2019-01-16T08:36:44.648Z,519.47
2019-01-16T08:37:44.588Z,527.16
2019-01-16T08:38:44.607Z,521.86
2019-01-16T08:39:44.581Z,525.41
2019-01-16T08:40:44.552Z,525.29
2019-01-16T08:41:44.556Z,523.85
2019-01-16T08:42:44.560Z,520.51
2019-01-16T08:43:52.706Z,519.07
2019-01-16T08:44:53.366Z,519.50
2019-01-16T08:45:44.536Z,521.22
2019-01-16T08:46:44.544Z,521.05
2019-01-16T08:47:44.481Z,522.67
2019-01-16T08:48:44.531Z,527.50
2019-01-16T08:49:44.454Z,510.87
2019-01-16T08:50:44.474Z,514.39
2019-01-16T08:51:44.455Z,523.25
2019-01-16T08:52:44.423Z,523.60
2019-01-16T08:53:44.711Z,524.36
2019-01-16T08:54:44.409Z,522.28
2019-01-16T08:55:44.407Z,513.08
2019-01-16T08:56:44.430Z,521.54
2019-01-16T08:57:44.427Z,518.76
2019-01-16T08:58:44.398Z,518.35
2019-01-16T08:59:44.373Z,518.93
2019-01-16T09:00:44.388Z,516.15
2019-01-16T09:01:44.371Z,519.57
2019-01-16T09:02:44.345Z,515.41
2019-01-16T09:03:44.343Z,522.32
2019-01-16T09:04:44.311Z,514.55
2019-01-16T09:05:44.303Z,520.49
2019-01-16T09:06:44.300Z,522.49
2019-01-16T09:07:44.307Z,523.89
2019-01-16T09:08:44.312Z,526.15
2019-01-16T09:09:44.268Z,525.08
2019-01-16T09:10:44.263Z,524.65
2019-01-16T09:11:44.251Z,527.28
2019-01-16T09:12:44.232Z,524.79
2019-01-16T09:13:44.229Z,525.49
2019-01-16T09:14:44.219Z,524.05
2019-01-16T09:15:44.193Z,517.31
2019-01-16T09:16:44.198Z,516.17
2019-01-16T09:17:44.165Z,516.29
2019-01-16T09:18:44.199Z,522.05
2019-01-16T09:19:44.135Z,524.99
2019-01-16T09:20:44.131Z,526.92
2019-01-16T09:21:44.135Z,522.91
2019-01-16T09:22:45.051Z,523.62
2019-01-16T09:23:44.134Z,518.66
2019-01-16T09:24:44.118Z,521.46
2019-01-16T09:25:44.097Z,521.70
2019-01-16T09:26:44.075Z,522.77
2019-01-16T09:27:44.079Z,526.52
2019-01-16T09:28:44.086Z,523.61
2019-01-16T09:29:44.049Z,520.02
2019-01-16T09:30:44.029Z,522.55
2019-01-16T09:31:44.031Z,523.77
2019-01-16T09:32:44.033Z,526.62
2019-01-16T09:33:44.037Z,523.12
2019-01-16T09:34:43.991Z,519.89
2019-01-16T09:35:44.033Z,522.32
2019-01-16T09:36:43.987Z,527.80
2019-01-16T09:37:43.967Z,522.09
2019-01-16T09:38:43.979Z,520.17
2019-01-16T09:39:43.933Z,521.28
2019-01-16T09:40:43.938Z,526.79
2019-01-16T09:41:43.943Z,520.08
2019-01-16T09:42:43.922Z,524.23
2019-01-16T09:43:44.823Z,522.56
2019-01-16T09:44:43.873Z,524.22
2019-01-16T09:45:43.866Z,522.39
2019-01-16T09:46:43.867Z,523.55
2019-01-16T09:47:43.881Z,525.27
2019-01-16T09:48:43.901Z,528.53
2019-01-16T09:49:43.844Z,526.73
2019-01-16T09:50:47.836Z,519.88
2019-01-16T09:51:43.819Z,518.76
2019-01-16T09:52:43.825Z,525.74
2019-01-16T09:53:43.813Z,514.87
2019-01-16T09:54:43.801Z,525.72
2019-01-16T09:55:43.765Z,524.21
2019-01-16T09:56:43.773Z,524.38
2019-01-16T09:57:43.743Z,522.52
2019-01-16T09:58:43.746Z,523.25
2019-01-16T09:59:43.747Z,525.14
2019-01-16T10:00:43.718Z,524.05
2019-01-16T10:01:43.719Z,522.41
2019-01-16T10:02:43.704Z,516.27
2019-01-16T10:03:43.728Z,526.97
2019-01-16T10:04:51.271Z,527.81
2019-01-16T10:05:51.816Z,520.38
2019-01-16T10:06:51.838Z,527.10
2019-01-16T10:07:43.666Z,523.54
2019-01-16T10:08:43.714Z,522.78
2019-01-16T10:09:43.644Z,530.16
2019-01-16T10:10:43.657Z,525.60
2019-01-16T10:11:43.623Z,528.60
2019-01-16T10:12:43.591Z,524.03
2019-01-16T10:13:43.613Z,525.06
2019-01-16T10:14:43.557Z,523.47
2019-01-16T10:15:43.573Z,521.03
2019-01-16T10:16:44.277Z,523.02
2019-01-16T10:17:43.559Z,515.61
2019-01-16T10:18:43.579Z,519.27
2019-01-16T10:19:43.509Z,522.91
2019-01-16T10:20:46.316Z,516.20
2019-01-16T10:21:43.508Z,518.79
2019-01-16T10:22:43.493Z,523.37
2019-01-16T10:23:43.510Z,520.82
2019-01-16T10:24:43.493Z,515.82
2019-01-16T10:25:43.469Z,521.90
2019-01-16T10:26:43.469Z,524.34
2019-01-16T10:27:43.491Z,518.66
2019-01-16T10:28:43.440Z,520.08
2019-01-16T10:29:43.450Z,518.81
2019-01-16T10:30:43.409Z,524.17
2019-01-16T10:31:43.394Z,526.87
2019-01-16T10:32:43.390Z,525.98
2019-01-16T10:33:43.401Z,523.14
2019-01-16T10:34:43.402Z,518.99
2019-01-16T10:35:43.372Z,525.24
2019-01-16T10:36:43.338Z,517.63
2019-01-16T10:37:43.339Z,524.67
2019-01-16T10:38:43.329Z,523.29
2019-01-16T10:39:43.312Z,524.63
2019-01-16T10:40:51.342Z,520.48
2019-01-16T10:41:50.447Z,518.76
2019-01-16T10:42:51.379Z,514.91
2019-01-16T10:43:43.315Z,524.21
2019-01-16T10:44:43.324Z,514.99
2019-01-16T10:45:43.297Z,518.15
2019-01-16T10:46:43.216Z,523.59
2019-01-16T10:47:50.817Z,520.50
2019-01-16T10:48:49.648Z,522.66
2019-01-16T10:49:44.289Z,518.80
2019-01-16T10:50:43.173Z,520.77
2019-01-16T10:51:43.183Z,515.87
2019-01-16T10:52:43.167Z,523.84
2019-01-16T10:53:43.188Z,525.01
2019-01-16T10:54:43.215Z,524.34
2019-01-16T10:55:43.132Z,523.10
2019-01-16T10:56:43.913Z,522.61
2019-01-16T10:57:43.149Z,520.77
2019-01-16T10:58:43.145Z,519.29
2019-01-16T10:59:43.120Z,518.09
2019-01-16T11:00:43.107Z,520.06
2019-01-16T11:01:43.062Z,523.56
2019-01-16T11:02:43.891Z,518.53
2019-01-16T11:03:43.079Z,518.30
2019-01-16T11:04:43.066Z,521.59
2019-01-16T11:05:43.040Z,522.04
2019-01-16T11:06:43.029Z,524.36
2019-01-16T11:07:43.029Z,518.36
2019-01-16T11:08:42.999Z,524.47
2019-01-16T11:09:43.022Z,522.23
2019-01-16T11:10:42.986Z,522.10
2019-01-16T11:11:42.981Z,519.50
2019-01-16T11:12:42.957Z,525.15
2019-01-16T11:13:42.949Z,522.49
2019-01-16T11:14:42.959Z,518.07
2019-01-16T11:15:42.941Z,520.23
2019-01-16T11:16:42.936Z,517.36
2019-01-16T11:17:42.902Z,523.86
2019-01-16T11:18:42.919Z,520.35
2019-01-16T11:19:42.959Z,524.90
2019-01-16T11:20:42.874Z,522.30
2019-01-16T11:21:42.874Z,518.82
2019-01-16T11:22:42.873Z,520.24
2019-01-16T11:23:42.826Z,520.42
2019-01-16T11:24:42.855Z,523.88
2019-01-16T11:25:42.840Z,523.97
2019-01-16T11:26:42.829Z,517.11
2019-01-16T11:27:42.802Z,517.70
2019-01-16T11:28:42.815Z,519.87
2019-01-16T11:29:42.811Z,521.90
2019-01-16T11:30:42.799Z,523.60
2019-01-16T11:31:42.754Z,517.77
2019-01-16T11:32:42.790Z,520.72
2019-01-16T11:33:42.768Z,525.20
2019-01-16T11:34:42.784Z,522.37
2019-01-16T11:35:44.491Z,523.21
2019-01-16T11:36:42.723Z,523.60
2019-01-16T11:37:43.409Z,524.38
2019-01-16T11:38:42.746Z,524.20
2019-01-16T11:39:42.925Z,519.56
2019-01-16T11:40:42.696Z,521.86
2019-01-16T11:41:42.686Z,519.11
2019-01-16T11:42:42.721Z,521.96
2019-01-16T11:43:42.647Z,516.66
2019-01-16T11:44:42.640Z,523.36
2019-01-16T11:45:42.637Z,522.42
2019-01-16T11:46:42.590Z,526.50
2019-01-16T11:47:42.595Z,518.40
2019-01-16T11:48:42.566Z,518.47
2019-01-16T11:49:42.599Z,525.47
2019-01-16T11:50:42.556Z,522.02
2019-01-16T11:51:42.556Z,519.10
2019-01-16T11:52:42.516Z,525.37
2019-01-16T11:53:42.513Z,525.65
2019-01-16T11:54:42.517Z,526.08
2019-01-16T11:55:42.494Z,520.73
2019-01-16T11:56:42.496Z,522.64
2019-01-16T11:57:42.475Z,521.10
2019-01-16T11:58:42.487Z,517.86
2019-01-16T11:59:42.447Z,519.35
2019-01-16T12:00:42.431Z,524.25
2019-01-16T12:01:42.444Z,522.21
2019-01-16T12:02:42.407Z,519.78
2019-01-16T12:03:42.402Z,524.08
2019-01-16T12:04:42.446Z,524.05
2019-01-16T12:05:42.387Z,524.09
2019-01-16T12:06:42.370Z,522.14
2019-01-16T12:07:51.495Z,518.49
2019-01-16T12:08:50.482Z,524.08
2019-01-16T12:09:50.560Z,523.94
2019-01-16T12:10:49.446Z,519.53
2019-01-16T12:11:49.410Z,521.57
2019-01-16T12:12:50.726Z,521.24
2019-01-16T12:13:50.467Z,520.75
2019-01-16T12:14:50.925Z,520.96
2019-01-16T12:15:50.628Z,522.63
2019-01-16T12:16:50.750Z,520.67
2019-01-16T12:17:49.698Z,517.97
2019-01-16T12:18:42.438Z,520.63
2019-01-16T12:19:42.334Z,520.88
2019-01-16T12:20:42.368Z,522.98
2019-01-16T12:21:43.636Z,520.15
2019-01-16T12:22:42.226Z,517.36
2019-01-16T12:23:43.139Z,519.33
2019-01-16T12:24:42.225Z,521.18
2019-01-16T12:25:42.215Z,523.96
2019-01-16T12:26:42.217Z,517.23
2019-01-16T12:27:42.173Z,517.24
2019-01-16T12:28:42.141Z,526.65
2019-01-16T12:29:42.239Z,518.47